sensor_id;sensor_type;location;lat;lon;timestamp;temperature;humidity
40291;DHT22;26000;48.304;13.626;2023-04-03T00:01:32;6.30;99.90
40291;DHT22;26000;48.304;13.626;2023-04-03T00:03:58;6.30;99.90
40291;DHT22;26000;48.304;13.626;2023-04-03T00:06:26;6.30;99.90
40291;DHT22;26000;48.304;13.626;2023-04-03T00:08:52;6.30;99.90
40291;DHT22;26000;48.304;13.626;2023-04-03T00:11:18;6.30;99.90
40291;DHT22;26000;48.304;13.626;2023-04-03T00:13:44;6.30;99.90
40291;DHT22;26000;48.304;13.626;2023-04-03T00:16:10;6.30;99.90
40291;DHT22;26000;48.304;13.626;2023-04-03T00:18:37;6.30;99.90
40291;DHT22;26000;48.304;13.626;2023-04-03T00:21:04;6.20;99.90
40291;DHT22;26000;48.304;13.626;2023-04-03T00:23:29;6.20;99.90
40291;DHT22;26000;48.304;13.626;2023-04-03T00:25:55;6.20;99.90
40291;DHT22;26000;48.304;13.626;2023-04-03T00:28:21;6.20;99.90
40291;DHT22;26000;48.304;13.626;2023-04-03T00:30:48;6.20;99.90
40291;DHT22;26000;48.304;13.626;2023-04-03T00:33:14;6.20;99.90
40291;DHT22;26000;48.304;13.626;2023-04-03T00:35:41;6.20;99.90
40291;DHT22;26000;48.304;13.626;2023-04-03T00:38:07;6.20;99.90
40291;DHT22;26000;48.304;13.626;2023-04-03T00:40:35;6.20;99.90
40291;DHT22;26000;48.304;13.626;2023-04-03T00:43:01;6.20;99.90
40291;DHT22;26000;48.304;13.626;2023-04-03T00:45:32;6.20;99.90
40291;DHT22;26000;48.304;13.626;2023-04-03T00:47:58;6.20;99.90
40291;DHT22;26000;48.304;13.626;2023-04-03T00:50:27;6.20;99.90
40291;DHT22;26000;48.304;13.626;2023-04-03T00:52:53;6.20;99.90
40291;DHT22;26000;48.304;13.626;2023-04-03T00:55:19;6.30;99.90
40291;DHT22;26000;48.304;13.626;2023-04-03T00:57:46;6.30;99.90
40291;DHT22;26000;48.304;13.626;2023-04-03T01:00:15;6.30;99.90
40291;DHT22;26000;48.304;13.626;2023-04-03T01:02:42;6.30;99.90
40291;DHT22;26000;48.304;13.626;2023-04-03T01:05:08;6.20;99.90
40291;DHT22;26000;48.304;13.626;2023-04-03T01:07:34;6.20;99.90
40291;DHT22;26000;48.304;13.626;2023-04-03T01:10:05;6.20;99.90
40291;DHT22;26000;48.304;13.626;2023-04-03T01:12:37;6.10;99.90
40291;DHT22;26000;48.304;13.626;2023-04-03T01:15:10;6.20;99.90
40291;DHT22;26000;48.304;13.626;2023-04-03T01:17:53;6.10;99.90
40291;DHT22;26000;48.304;13.626;2023-04-03T01:25:39;6.20;99.90
40291;DHT22;26000;48.304;13.626;2023-04-03T01:28:07;6.10;99.90
40291;DHT22;26000;48.304;13.626;2023-04-03T01:30:39;6.10;99.90
40291;DHT22;26000;48.304;13.626;2023-04-03T01:33:06;6.10;99.90
40291;DHT22;26000;48.304;13.626;2023-04-03T01:35:32;6.00;99.90
40291;DHT22;26000;48.304;13.626;2023-04-03T01:37:57;6.10;99.90
40291;DHT22;26000;48.304;13.626;2023-04-03T01:40:23;6.00;99.90
40291;DHT22;26000;48.304;13.626;2023-04-03T01:42:49;6.00;99.90
40291;DHT22;26000;48.304;13.626;2023-04-03T01:45:14;6.10;99.90
40291;DHT22;26000;48.304;13.626;2023-04-03T01:47:40;6.00;99.90
40291;DHT22;26000;48.304;13.626;2023-04-03T01:50:06;6.00;99.90
40291;DHT22;26000;48.304;13.626;2023-04-03T01:52:32;6.20;99.90
40291;DHT22;26000;48.304;13.626;2023-04-03T01:54:57;6.20;99.90
40291;DHT22;26000;48.304;13.626;2023-04-03T01:57:23;6.10;99.90
40291;DHT22;26000;48.304;13.626;2023-04-03T01:59:48;6.20;99.90
40291;DHT22;26000;48.304;13.626;2023-04-03T02:02:14;6.10;99.90
40291;DHT22;26000;48.304;13.626;2023-04-03T02:04:40;6.20;99.90
40291;DHT22;26000;48.304;13.626;2023-04-03T02:07:06;6.10;99.90
40291;DHT22;26000;48.304;13.626;2023-04-03T02:09:32;6.10;99.90
40291;DHT22;26000;48.304;13.626;2023-04-03T02:11:57;6.00;99.90
40291;DHT22;26000;48.304;13.626;2023-04-03T02:14:23;6.00;99.90
40291;DHT22;26000;48.304;13.626;2023-04-03T02:16:49;6.00;99.90
40291;DHT22;26000;48.304;13.626;2023-04-03T02:19:15;6.00;99.90
40291;DHT22;26000;48.304;13.626;2023-04-03T02:21:41;5.90;99.90
40291;DHT22;26000;48.304;13.626;2023-04-03T02:24:07;6.00;99.90
40291;DHT22;26000;48.304;13.626;2023-04-03T02:26:33;5.90;99.90
40291;DHT22;26000;48.304;13.626;2023-04-03T02:28:58;6.00;99.90
40291;DHT22;26000;48.304;13.626;2023-04-03T02:31:24;5.90;99.90
40291;DHT22;26000;48.304;13.626;2023-04-03T02:33:49;6.00;99.90
40291;DHT22;26000;48.304;13.626;2023-04-03T02:36:15;5.90;99.90
40291;DHT22;26000;48.304;13.626;2023-04-03T02:38:41;5.90;99.90
40291;DHT22;26000;48.304;13.626;2023-04-03T02:41:10;5.90;99.90
40291;DHT22;26000;48.304;13.626;2023-04-03T02:43:36;5.90;99.90
40291;DHT22;26000;48.304;13.626;2023-04-03T02:46:02;5.90;99.90
40291;DHT22;26000;48.304;13.626;2023-04-03T02:48:28;5.90;99.90
40291;DHT22;26000;48.304;13.626;2023-04-03T02:50:54;5.90;99.90
40291;DHT22;26000;48.304;13.626;2023-04-03T02:53:19;5.90;99.90
40291;DHT22;26000;48.304;13.626;2023-04-03T02:55:45;5.90;99.90
40291;DHT22;26000;48.304;13.626;2023-04-03T02:58:11;5.90;99.90
40291;DHT22;26000;48.304;13.626;2023-04-03T03:00:37;5.90;99.90
40291;DHT22;26000;48.304;13.626;2023-04-03T03:03:03;5.90;99.90
40291;DHT22;26000;48.304;13.626;2023-04-03T03:05:29;5.90;99.90
40291;DHT22;26000;48.304;13.626;2023-04-03T03:07:55;5.90;99.90
40291;DHT22;26000;48.304;13.626;2023-04-03T03:10:21;5.90;99.90
40291;DHT22;26000;48.304;13.626;2023-04-03T03:12:47;5.90;99.90
40291;DHT22;26000;48.304;13.626;2023-04-03T03:15:13;5.90;99.90
40291;DHT22;26000;48.304;13.626;2023-04-03T03:17:38;5.90;99.90
40291;DHT22;26000;48.304;13.626;2023-04-03T03:20:05;5.90;99.90
40291;DHT22;26000;48.304;13.626;2023-04-03T03:22:31;6.00;99.90
40291;DHT22;26000;48.304;13.626;2023-04-03T03:24:56;6.00;99.90
40291;DHT22;26000;48.304;13.626;2023-04-03T03:27:22;6.00;99.90
40291;DHT22;26000;48.304;13.626;2023-04-03T03:29:47;5.90;99.90
40291;DHT22;26000;48.304;13.626;2023-04-03T03:32:13;5.90;99.90
40291;DHT22;26000;48.304;13.626;2023-04-03T03:34:38;5.90;99.90
40291;DHT22;26000;48.304;13.626;2023-04-03T03:37:04;5.90;99.90
40291;DHT22;26000;48.304;13.626;2023-04-03T03:39:30;5.80;99.90
40291;DHT22;26000;48.304;13.626;2023-04-03T03:41:56;5.80;99.90
40291;DHT22;26000;48.304;13.626;2023-04-03T03:44:21;5.90;99.90
40291;DHT22;26000;48.304;13.626;2023-04-03T03:46:47;5.80;99.90
40291;DHT22;26000;48.304;13.626;2023-04-03T03:49:12;5.80;99.90
40291;DHT22;26000;48.304;13.626;2023-04-03T03:51:39;5.80;99.90
40291;DHT22;26000;48.304;13.626;2023-04-03T03:54:05;5.80;99.90
40291;DHT22;26000;48.304;13.626;2023-04-03T03:56:31;5.80;99.90
40291;DHT22;26000;48.304;13.626;2023-04-03T03:58:57;5.80;99.90
40291;DHT22;26000;48.304;13.626;2023-04-03T04:01:23;5.90;99.90
40291;DHT22;26000;48.304;13.626;2023-04-03T04:03:49;5.80;99.90
40291;DHT22;26000;48.304;13.626;2023-04-03T04:06:15;5.80;99.90
40291;DHT22;26000;48.304;13.626;2023-04-03T04:08:41;5.80;99.90
40291;DHT22;26000;48.304;13.626;2023-04-03T04:11:07;5.70;99.90
40291;DHT22;26000;48.304;13.626;2023-04-03T04:13:33;5.70;99.90
40291;DHT22;26000;48.304;13.626;2023-04-03T04:15:59;5.60;99.90
40291;DHT22;26000;48.304;13.626;2023-04-03T04:18:24;5.70;99.90
40291;DHT22;26000;48.304;13.626;2023-04-03T04:20:50;5.80;99.90
40291;DHT22;26000;48.304;13.626;2023-04-03T04:23:16;5.80;99.90
40291;DHT22;26000;48.304;13.626;2023-04-03T04:25:45;5.70;99.90
40291;DHT22;26000;48.304;13.626;2023-04-03T04:28:11;5.80;99.90
40291;DHT22;26000;48.304;13.626;2023-04-03T04:30:36;5.80;99.90
40291;DHT22;26000;48.304;13.626;2023-04-03T04:33:02;5.70;99.90
40291;DHT22;26000;48.304;13.626;2023-04-03T04:35:28;5.70;99.90
40291;DHT22;26000;48.304;13.626;2023-04-03T04:37:53;5.60;99.90
40291;DHT22;26000;48.304;13.626;2023-04-03T04:40:19;5.60;99.90
40291;DHT22;26000;48.304;13.626;2023-04-03T04:42:45;5.70;99.90
40291;DHT22;26000;48.304;13.626;2023-04-03T04:45:10;5.80;99.90
40291;DHT22;26000;48.304;13.626;2023-04-03T04:47:36;5.80;99.90
40291;DHT22;26000;48.304;13.626;2023-04-03T04:50:02;5.80;99.90
40291;DHT22;26000;48.304;13.626;2023-04-03T04:52:28;5.70;99.90
40291;DHT22;26000;48.304;13.626;2023-04-03T04:54:54;5.70;99.90
40291;DHT22;26000;48.304;13.626;2023-04-03T04:57:19;5.80;99.90
40291;DHT22;26000;48.304;13.626;2023-04-03T04:59:45;5.80;99.90
40291;DHT22;26000;48.304;13.626;2023-04-03T05:02:11;5.80;99.90
40291;DHT22;26000;48.304;13.626;2023-04-03T05:04:36;5.80;99.90
40291;DHT22;26000;48.304;13.626;2023-04-03T05:07:02;5.70;99.90
40291;DHT22;26000;48.304;13.626;2023-04-03T05:09:28;5.80;99.90
40291;DHT22;26000;48.304;13.626;2023-04-03T05:11:53;5.70;99.90
40291;DHT22;26000;48.304;13.626;2023-04-03T05:14:19;5.80;99.90
40291;DHT22;26000;48.304;13.626;2023-04-03T05:16:45;5.70;99.90
40291;DHT22;26000;48.304;13.626;2023-04-03T05:19:10;5.70;99.90
40291;DHT22;26000;48.304;13.626;2023-04-03T05:21:36;5.70;99.90
40291;DHT22;26000;48.304;13.626;2023-04-03T05:24:02;5.70;99.90
40291;DHT22;26000;48.304;13.626;2023-04-03T05:26:29;5.80;99.90
40291;DHT22;26000;48.304;13.626;2023-04-03T05:28:55;5.70;99.90
40291;DHT22;26000;48.304;13.626;2023-04-03T05:31:21;5.80;99.90
40291;DHT22;26000;48.304;13.626;2023-04-03T05:33:46;5.80;99.90
40291;DHT22;26000;48.304;13.626;2023-04-03T05:36:12;5.80;99.90
40291;DHT22;26000;48.304;13.626;2023-04-03T05:38:38;5.80;99.90
40291;DHT22;26000;48.304;13.626;2023-04-03T05:41:04;5.90;99.90
40291;DHT22;26000;48.304;13.626;2023-04-03T05:43:30;5.90;99.90
40291;DHT22;26000;48.304;13.626;2023-04-03T05:45:56;5.90;99.90
40291;DHT22;26000;48.304;13.626;2023-04-03T05:48:21;5.90;99.90
40291;DHT22;26000;48.304;13.626;2023-04-03T05:50:47;5.80;99.90
40291;DHT22;26000;48.304;13.626;2023-04-03T05:53:21;5.90;99.90
40291;DHT22;26000;48.304;13.626;2023-04-03T05:55:47;6.70;99.90
40291;DHT22;26000;48.304;13.626;2023-04-03T05:58:13;6.80;99.90
40291;DHT22;26000;48.304;13.626;2023-04-03T06:00:38;6.70;99.90
40291;DHT22;26000;48.304;13.626;2023-04-03T06:03:04;6.60;99.90
40291;DHT22;26000;48.304;13.626;2023-04-03T06:05:30;6.50;99.90
40291;DHT22;26000;48.304;13.626;2023-04-03T06:07:56;6.40;99.90
40291;DHT22;26000;48.304;13.626;2023-04-03T06:10:22;6.30;99.90
40291;DHT22;26000;48.304;13.626;2023-04-03T06:12:48;6.20;99.90
40291;DHT22;26000;48.304;13.626;2023-04-03T06:15:13;6.20;99.90
40291;DHT22;26000;48.304;13.626;2023-04-03T06:17:40;6.10;99.90
40291;DHT22;26000;48.304;13.626;2023-04-03T06:20:06;6.00;99.90
40291;DHT22;26000;48.304;13.626;2023-04-03T06:22:33;6.10;99.90
40291;DHT22;26000;48.304;13.626;2023-04-03T06:24:58;6.20;99.90
40291;DHT22;26000;48.304;13.626;2023-04-03T06:27:24;6.20;99.90
40291;DHT22;26000;48.304;13.626;2023-04-03T06:29:49;6.20;99.90
40291;DHT22;26000;48.304;13.626;2023-04-03T06:32:16;6.20;99.90
40291;DHT22;26000;48.304;13.626;2023-04-03T06:34:41;6.10;99.90
40291;DHT22;26000;48.304;13.626;2023-04-03T06:37:15;6.10;99.90
40291;DHT22;26000;48.304;13.626;2023-04-03T06:39:41;6.10;99.90
40291;DHT22;26000;48.304;13.626;2023-04-03T06:42:07;6.20;99.90
40291;DHT22;26000;48.304;13.626;2023-04-03T06:44:32;6.30;99.90
40291;DHT22;26000;48.304;13.626;2023-04-03T06:47:00;6.20;99.90
40291;DHT22;26000;48.304;13.626;2023-04-03T06:49:26;6.30;99.90
40291;DHT22;26000;48.304;13.626;2023-04-03T06:51:51;6.30;99.90
40291;DHT22;26000;48.304;13.626;2023-04-03T06:54:17;6.30;99.90
40291;DHT22;26000;48.304;13.626;2023-04-03T06:56:43;6.50;99.90
40291;DHT22;26000;48.304;13.626;2023-04-03T06:59:11;6.50;99.90
40291;DHT22;26000;48.304;13.626;2023-04-03T07:01:37;6.40;99.90
40291;DHT22;26000;48.304;13.626;2023-04-03T07:04:03;6.40;99.90
40291;DHT22;26000;48.304;13.626;2023-04-03T07:06:28;6.40;99.90
40291;DHT22;26000;48.304;13.626;2023-04-03T07:08:55;6.50;99.90
40291;DHT22;26000;48.304;13.626;2023-04-03T07:11:20;6.50;99.90
40291;DHT22;26000;48.304;13.626;2023-04-03T07:13:46;6.50;99.90
40291;DHT22;26000;48.304;13.626;2023-04-03T07:16:12;6.50;99.90
40291;DHT22;26000;48.304;13.626;2023-04-03T07:18:37;6.50;99.90
40291;DHT22;26000;48.304;13.626;2023-04-03T07:21:04;6.50;99.90
40291;DHT22;26000;48.304;13.626;2023-04-03T07:23:29;6.70;99.90
40291;DHT22;26000;48.304;13.626;2023-04-03T07:25:55;6.50;99.90
40291;DHT22;26000;48.304;13.626;2023-04-03T07:28:22;6.50;99.90
40291;DHT22;26000;48.304;13.626;2023-04-03T07:31:08;6.50;99.90
40291;DHT22;26000;48.304;13.626;2023-04-03T07:33:37;6.50;99.90
40291;DHT22;26000;48.304;13.626;2023-04-03T07:36:04;6.50;99.90
40291;DHT22;26000;48.304;13.626;2023-04-03T07:38:29;6.50;99.90
40291;DHT22;26000;48.304;13.626;2023-04-03T07:40:55;6.40;99.90
40291;DHT22;26000;48.304;13.626;2023-04-03T07:43:22;6.20;99.90
40291;DHT22;26000;48.304;13.626;2023-04-03T07:45:48;6.00;99.90
40291;DHT22;26000;48.304;13.626;2023-04-03T07:48:17;5.90;99.90
40291;DHT22;26000;48.304;13.626;2023-04-03T07:50:43;5.80;99.90
40291;DHT22;26000;48.304;13.626;2023-04-03T07:53:09;5.70;99.90
40291;DHT22;26000;48.304;13.626;2023-04-03T07:55:36;5.60;99.90
40291;DHT22;26000;48.304;13.626;2023-04-03T07:58:11;5.60;99.90
40291;DHT22;26000;48.304;13.626;2023-04-03T08:00:38;5.50;99.90
40291;DHT22;26000;48.304;13.626;2023-04-03T08:03:05;5.40;99.90
40291;DHT22;26000;48.304;13.626;2023-04-03T08:05:31;5.40;99.90
40291;DHT22;26000;48.304;13.626;2023-04-03T08:07:56;5.30;99.90
40291;DHT22;26000;48.304;13.626;2023-04-03T08:10:22;5.30;99.90
40291;DHT22;26000;48.304;13.626;2023-04-03T08:12:48;5.20;99.90
40291;DHT22;26000;48.304;13.626;2023-04-03T08:15:14;5.40;99.90
40291;DHT22;26000;48.304;13.626;2023-04-03T08:17:41;5.30;99.90
40291;DHT22;26000;48.304;13.626;2023-04-03T08:20:09;5.40;99.90
40291;DHT22;26000;48.304;13.626;2023-04-03T08:22:35;5.60;99.90
40291;DHT22;26000;48.304;13.626;2023-04-03T08:25:01;5.70;99.90
40291;DHT22;26000;48.304;13.626;2023-04-03T08:27:27;5.80;99.90
40291;DHT22;26000;48.304;13.626;2023-04-03T08:29:54;6.00;99.90
40291;DHT22;26000;48.304;13.626;2023-04-03T08:32:20;6.00;99.90
40291;DHT22;26000;48.304;13.626;2023-04-03T08:34:45;6.00;99.90
40291;DHT22;26000;48.304;13.626;2023-04-03T08:37:11;6.10;99.90
40291;DHT22;26000;48.304;13.626;2023-04-03T08:39:37;6.20;99.90
40291;DHT22;26000;48.304;13.626;2023-04-03T08:42:10;6.30;99.90
40291;DHT22;26000;48.304;13.626;2023-04-03T08:44:54;6.30;99.90
40291;DHT22;26000;48.304;13.626;2023-04-03T08:47:42;6.30;99.90
40291;DHT22;26000;48.304;13.626;2023-04-03T08:50:17;6.30;99.90
40291;DHT22;26000;48.304;13.626;2023-04-03T08:52:53;6.30;99.90
40291;DHT22;26000;48.304;13.626;2023-04-03T08:55:25;6.40;99.90
40291;DHT22;26000;48.304;13.626;2023-04-03T08:58:19;6.50;99.90
40291;DHT22;26000;48.304;13.626;2023-04-03T09:00:58;6.60;99.90
40291;DHT22;26000;48.304;13.626;2023-04-03T09:03:24;6.60;99.90
40291;DHT22;26000;48.304;13.626;2023-04-03T09:05:54;6.60;99.90
40291;DHT22;26000;48.304;13.626;2023-04-03T09:08:28;6.70;99.90
40291;DHT22;26000;48.304;13.626;2023-04-03T09:11:16;6.70;99.90
40291;DHT22;26000;48.304;13.626;2023-04-03T09:21:52;6.90;99.90
40291;DHT22;26000;48.304;13.626;2023-04-03T09:24:18;6.90;99.90
40291;DHT22;26000;48.304;13.626;2023-04-03T09:27:20;7.10;99.90
40291;DHT22;26000;48.304;13.626;2023-04-03T09:29:46;7.20;99.90
40291;DHT22;26000;48.304;13.626;2023-04-03T09:34:44;7.50;99.90
40291;DHT22;26000;48.304;13.626;2023-04-03T09:37:12;7.60;99.90
40291;DHT22;26000;48.304;13.626;2023-04-03T09:39:58;7.80;99.90
40291;DHT22;26000;48.304;13.626;2023-04-03T09:42:24;7.90;99.90
40291;DHT22;26000;48.304;13.626;2023-04-03T09:47:35;8.10;99.90
40291;DHT22;26000;48.304;13.626;2023-04-03T09:52:45;8.10;99.90
40291;DHT22;26000;48.304;13.626;2023-04-03T09:55:19;8.20;99.90
40291;DHT22;26000;48.304;13.626;2023-04-03T09:57:47;8.10;98.40
40291;DHT22;26000;48.304;13.626;2023-04-03T10:02:58;8.00;99.90
40291;DHT22;26000;48.304;13.626;2023-04-03T10:05:37;8.00;99.90
40291;DHT22;26000;48.304;13.626;2023-04-03T10:10:43;7.90;99.30
40291;DHT22;26000;48.304;13.626;2023-04-03T10:13:18;7.90;99.50
40291;DHT22;26000;48.304;13.626;2023-04-03T10:16:12;8.10;98.80
40291;DHT22;26000;48.304;13.626;2023-04-03T10:24:21;8.80;98.70
40291;DHT22;26000;48.304;13.626;2023-04-03T10:30:21;9.10;97.20
40291;DHT22;26000;48.304;13.626;2023-04-03T10:33:24;9.20;95.00
40291;DHT22;26000;48.304;13.626;2023-04-03T10:36:10;9.20;94.70
40291;DHT22;26000;48.304;13.626;2023-04-03T10:44:01;9.90;91.00
40291;DHT22;26000;48.304;13.626;2023-04-03T10:51:48;9.60;89.30
40291;DHT22;26000;48.304;13.626;2023-04-03T10:57:31;9.50;91.80
40291;DHT22;26000;48.304;13.626;2023-04-03T10:59:57;9.30;91.00
40291;DHT22;26000;48.304;13.626;2023-04-03T11:02:35;9.00;91.10
40291;DHT22;26000;48.304;13.626;2023-04-03T11:05:14;8.80;92.10
40291;DHT22;26000;48.304;13.626;2023-04-03T11:07:45;8.70;90.10
40291;DHT22;26000;48.304;13.626;2023-04-03T11:10:13;9.00;91.20
40291;DHT22;26000;48.304;13.626;2023-04-03T11:12:44;9.00;90.00
40291;DHT22;26000;48.304;13.626;2023-04-03T11:15:14;8.90;91.50
40291;DHT22;26000;48.304;13.626;2023-04-03T11:17:45;8.70;88.00
40291;DHT22;26000;48.304;13.626;2023-04-03T11:20:30;8.50;87.60
40291;DHT22;26000;48.304;13.626;2023-04-03T11:23:04;8.50;87.00
40291;DHT22;26000;48.304;13.626;2023-04-03T11:25:33;8.60;89.70
40291;DHT22;26000;48.304;13.626;2023-04-03T11:28:05;8.50;90.30
40291;DHT22;26000;48.304;13.626;2023-04-03T11:30:46;8.60;90.70
40291;DHT22;26000;48.304;13.626;2023-04-03T11:33:53;8.50;91.40
40291;DHT22;26000;48.304;13.626;2023-04-03T11:36:26;8.70;91.40
40291;DHT22;26000;48.304;13.626;2023-04-03T11:38:55;8.80;89.20
40291;DHT22;26000;48.304;13.626;2023-04-03T11:41:28;8.70;91.00
40291;DHT22;26000;48.304;13.626;2023-04-03T11:44:00;8.60;89.20
40291;DHT22;26000;48.304;13.626;2023-04-03T11:46:52;8.70;88.90
40291;DHT22;26000;48.304;13.626;2023-04-03T12:18:58;7.90;92.00
40291;DHT22;26000;48.304;13.626;2023-04-03T12:24:05;8.10;91.60
40291;DHT22;26000;48.304;13.626;2023-04-03T12:37:37;8.00;91.10
40291;DHT22;26000;48.304;13.626;2023-04-03T12:45:41;8.10;91.20
40291;DHT22;26000;48.304;13.626;2023-04-03T12:48:17;8.00;88.30
40291;DHT22;26000;48.304;13.626;2023-04-03T12:50:46;8.00;90.90
40291;DHT22;26000;48.304;13.626;2023-04-03T12:53:22;7.90;90.20
40291;DHT22;26000;48.304;13.626;2023-04-03T12:55:57;7.70;88.90
40291;DHT22;26000;48.304;13.626;2023-04-03T12:58:42;7.80;91.40
40291;DHT22;26000;48.304;13.626;2023-04-03T13:01:15;7.90;89.70
40291;DHT22;26000;48.304;13.626;2023-04-03T13:03:56;8.10;90.60
40291;DHT22;26000;48.304;13.626;2023-04-03T13:06:39;8.00;88.20
40291;DHT22;26000;48.304;13.626;2023-04-03T13:09:14;8.00;89.10
40291;DHT22;26000;48.304;13.626;2023-04-03T13:11:44;8.00;88.20
40291;DHT22;26000;48.304;13.626;2023-04-03T13:14:37;8.10;91.20
40291;DHT22;26000;48.304;13.626;2023-04-03T13:17:04;8.00;87.30
40291;DHT22;26000;48.304;13.626;2023-04-03T13:19:31;7.90;88.80
40291;DHT22;26000;48.304;13.626;2023-04-03T13:22:19;7.80;90.40
40291;DHT22;26000;48.304;13.626;2023-04-03T13:24:50;7.80;91.30
40291;DHT22;26000;48.304;13.626;2023-04-03T13:27:17;7.90;89.70
40291;DHT22;26000;48.304;13.626;2023-04-03T13:29:48;7.90;87.60
40291;DHT22;26000;48.304;13.626;2023-04-03T13:32:19;8.10;85.90
40291;DHT22;26000;48.304;13.626;2023-04-03T13:34:46;8.10;89.70
40291;DHT22;26000;48.304;13.626;2023-04-03T13:37:31;8.40;90.70
40291;DHT22;26000;48.304;13.626;2023-04-03T13:40:01;8.30;86.90
40291;DHT22;26000;48.304;13.626;2023-04-03T13:42:33;8.20;87.70
40291;DHT22;26000;48.304;13.626;2023-04-03T13:47:45;8.00;89.20
40291;DHT22;26000;48.304;13.626;2023-04-03T13:53:08;7.50;87.50
40291;DHT22;26000;48.304;13.626;2023-04-03T13:55:39;7.40;90.10
40291;DHT22;26000;48.304;13.626;2023-04-03T13:58:22;7.40;90.00
40291;DHT22;26000;48.304;13.626;2023-04-03T14:01:15;7.20;89.90
40291;DHT22;26000;48.304;13.626;2023-04-03T14:03:57;7.20;87.90
40291;DHT22;26000;48.304;13.626;2023-04-03T14:06:23;7.00;89.30
40291;DHT22;26000;48.304;13.626;2023-04-03T14:08:49;7.00;89.60
40291;DHT22;26000;48.304;13.626;2023-04-03T14:11:19;7.00;91.00
40291;DHT22;26000;48.304;13.626;2023-04-03T14:13:47;7.00;90.10
40291;DHT22;26000;48.304;13.626;2023-04-03T14:16:15;7.10;89.60
40291;DHT22;26000;48.304;13.626;2023-04-03T14:18:43;6.90;88.80
40291;DHT22;26000;48.304;13.626;2023-04-03T14:21:12;7.00;88.20
40291;DHT22;26000;48.304;13.626;2023-04-03T14:23:39;7.00;88.00
40291;DHT22;26000;48.304;13.626;2023-04-03T14:26:13;7.00;88.20
40291;DHT22;26000;48.304;13.626;2023-04-03T14:28:39;7.10;87.10
40291;DHT22;26000;48.304;13.626;2023-04-03T14:31:06;7.20;86.90
40291;DHT22;26000;48.304;13.626;2023-04-03T14:33:32;7.20;85.20
40291;DHT22;26000;48.304;13.626;2023-04-03T14:36:00;7.10;84.80
40291;DHT22;26000;48.304;13.626;2023-04-03T14:38:29;7.20;85.10
40291;DHT22;26000;48.304;13.626;2023-04-03T14:40:56;7.30;83.30
40291;DHT22;26000;48.304;13.626;2023-04-03T14:43:23;7.30;86.30
40291;DHT22;26000;48.304;13.626;2023-04-03T14:45:49;7.40;84.80
40291;DHT22;26000;48.304;13.626;2023-04-03T14:48:21;7.20;82.80
40291;DHT22;26000;48.304;13.626;2023-04-03T14:50:49;7.10;84.10
40291;DHT22;26000;48.304;13.626;2023-04-03T14:53:15;7.10;82.40
40291;DHT22;26000;48.304;13.626;2023-04-03T14:55:44;7.20;84.30
40291;DHT22;26000;48.304;13.626;2023-04-03T14:58:15;7.30;83.60
40291;DHT22;26000;48.304;13.626;2023-04-03T15:00:42;7.40;86.30
40291;DHT22;26000;48.304;13.626;2023-04-03T15:03:14;7.30;83.20
40291;DHT22;26000;48.304;13.626;2023-04-03T15:05:41;7.20;82.90
40291;DHT22;26000;48.304;13.626;2023-04-03T15:10:46;7.20;83.40
40291;DHT22;26000;48.304;13.626;2023-04-03T15:13:12;7.20;83.30
40291;DHT22;26000;48.304;13.626;2023-04-03T15:15:38;7.20;82.50
40291;DHT22;26000;48.304;13.626;2023-04-03T15:18:04;7.10;84.30
40291;DHT22;26000;48.304;13.626;2023-04-03T15:20:30;7.10;81.60
40291;DHT22;26000;48.304;13.626;2023-04-03T15:22:59;7.10;83.20
40291;DHT22;26000;48.304;13.626;2023-04-03T15:25:29;7.10;84.30
40291;DHT22;26000;48.304;13.626;2023-04-03T15:27:55;7.10;82.60
40291;DHT22;26000;48.304;13.626;2023-04-03T15:30:21;7.00;82.20
40291;DHT22;26000;48.304;13.626;2023-04-03T15:32:47;6.80;81.50
40291;DHT22;26000;48.304;13.626;2023-04-03T15:35:13;6.80;83.00
40291;DHT22;26000;48.304;13.626;2023-04-03T15:37:39;6.70;82.10
40291;DHT22;26000;48.304;13.626;2023-04-03T15:40:05;6.80;84.00
40291;DHT22;26000;48.304;13.626;2023-04-03T15:42:31;6.90;83.70
40291;DHT22;26000;48.304;13.626;2023-04-03T15:44:57;6.90;83.00
40291;DHT22;26000;48.304;13.626;2023-04-03T15:47:24;6.90;81.60
40291;DHT22;26000;48.304;13.626;2023-04-03T15:49:50;6.80;80.70
40291;DHT22;26000;48.304;13.626;2023-04-03T15:52:16;6.80;81.90
40291;DHT22;26000;48.304;13.626;2023-04-03T15:54:41;6.80;83.80
40291;DHT22;26000;48.304;13.626;2023-04-03T15:57:07;6.70;83.30
40291;DHT22;26000;48.304;13.626;2023-04-03T15:59:32;6.70;84.50
40291;DHT22;26000;48.304;13.626;2023-04-03T16:01:59;6.70;84.50
40291;DHT22;26000;48.304;13.626;2023-04-03T16:04:27;6.80;85.20
40291;DHT22;26000;48.304;13.626;2023-04-03T16:06:53;6.80;84.90
40291;DHT22;26000;48.304;13.626;2023-04-03T16:09:19;6.80;84.50
40291;DHT22;26000;48.304;13.626;2023-04-03T16:11:44;6.80;85.90
40291;DHT22;26000;48.304;13.626;2023-04-03T16:14:10;6.90;86.00
40291;DHT22;26000;48.304;13.626;2023-04-03T16:16:37;6.80;86.30
40291;DHT22;26000;48.304;13.626;2023-04-03T16:19:03;6.70;86.20
40291;DHT22;26000;48.304;13.626;2023-04-03T16:21:29;6.70;86.10
40291;DHT22;26000;48.304;13.626;2023-04-03T16:24:00;6.60;86.10
40291;DHT22;26000;48.304;13.626;2023-04-03T16:26:26;6.50;88.40
40291;DHT22;26000;48.304;13.626;2023-04-03T16:28:52;6.50;87.80
40291;DHT22;26000;48.304;13.626;2023-04-03T16:31:18;6.50;88.30
40291;DHT22;26000;48.304;13.626;2023-04-03T16:33:44;6.30;87.80
40291;DHT22;26000;48.304;13.626;2023-04-03T16:36:10;6.40;87.00
40291;DHT22;26000;48.304;13.626;2023-04-03T16:38:36;6.30;88.80
40291;DHT22;26000;48.304;13.626;2023-04-03T16:41:02;6.20;88.50
40291;DHT22;26000;48.304;13.626;2023-04-03T16:43:30;6.20;88.30
40291;DHT22;26000;48.304;13.626;2023-04-03T16:45:56;6.10;88.10
40291;DHT22;26000;48.304;13.626;2023-04-03T16:48:22;6.10;88.10
40291;DHT22;26000;48.304;13.626;2023-04-03T16:50:49;6.10;89.00
40291;DHT22;26000;48.304;13.626;2023-04-03T16:53:18;6.10;88.10
40291;DHT22;26000;48.304;13.626;2023-04-03T16:55:43;5.90;89.40
40291;DHT22;26000;48.304;13.626;2023-04-03T16:58:09;5.90;90.30
40291;DHT22;26000;48.304;13.626;2023-04-03T17:00:35;5.90;90.60
40291;DHT22;26000;48.304;13.626;2023-04-03T17:03:01;5.90;90.40
40291;DHT22;26000;48.304;13.626;2023-04-03T17:05:27;5.80;90.70
40291;DHT22;26000;48.304;13.626;2023-04-03T17:07:53;5.90;88.90
40291;DHT22;26000;48.304;13.626;2023-04-03T17:10:19;5.80;90.00
40291;DHT22;26000;48.304;13.626;2023-04-03T17:12:44;5.80;90.10
40291;DHT22;26000;48.304;13.626;2023-04-03T17:15:10;5.70;89.80
40291;DHT22;26000;48.304;13.626;2023-04-03T17:17:36;5.70;90.00
40291;DHT22;26000;48.304;13.626;2023-04-03T17:20:03;5.70;90.10
40291;DHT22;26000;48.304;13.626;2023-04-03T17:22:29;5.70;90.70
40291;DHT22;26000;48.304;13.626;2023-04-03T17:24:55;5.70;91.10